sensor_id;sensor_type;location;lat;lon;timestamp;pressure;altitude;pressure_sealevel;temperature;humidity
37298;BME280;30517;51.932;4.278;2023-10-19T00:01:17;99126.50;;;13.60;60.59
37298;BME280;30517;51.932;4.278;2023-10-19T00:03:59;99144.78;;;13.66;60.91
37298;BME280;30517;51.932;4.278;2023-10-19T00:06:40;99143.34;;;13.79;60.38
37298;BME280;30517;51.932;4.278;2023-10-19T00:09:21;99155.69;;;13.80;60.53
37298;BME280;30517;51.932;4.278;2023-10-19T00:12:04;99133.28;;;13.67;60.36
37298;BME280;30517;51.932;4.278;2023-10-19T00:14:50;99115.97;;;13.58;59.95
37298;BME280;30517;51.932;4.278;2023-10-19T00:17:31;99095.84;;;13.54;60.39
37298;BME280;30517;51.932;4.278;2023-10-19T00:20:13;99143.78;;;13.68;60.78
37298;BME280;30517;51.932;4.278;2023-10-19T00:23:18;99151.28;;;13.79;60.53
37298;BME280;30517;51.932;4.278;2023-10-19T00:26:00;99139.56;;;13.85;60.20
37298;BME280;30517;51.932;4.278;2023-10-19T00:28:49;99158.38;;;13.79;60.47
37298;BME280;30517;51.932;4.278;2023-10-19T00:31:33;99142.47;;;13.79;60.43
37298;BME280;30517;51.932;4.278;2023-10-19T00:34:20;99143.34;;;13.79;60.41
37298;BME280;30517;51.932;4.278;2023-10-19T00:37:02;99110.34;;;13.66;60.42
37298;BME280;30517;51.932;4.278;2023-10-19T00:39:48;99101.53;;;13.65;59.80
37298;BME280;30517;51.932;4.278;2023-10-19T00:42:34;99145.41;;;13.93;60.15
37298;BME280;30517;51.932;4.278;2023-10-19T00:45:18;99148.03;;;13.93;59.97
37298;BME280;30517;51.932;4.278;2023-10-19T00:48:08;99130.16;;;13.78;59.97
37298;BME280;30517;51.932;4.278;2023-10-19T00:50:52;99141.09;;;13.90;60.32
37298;BME280;30517;51.932;4.278;2023-10-19T00:53:47;99145.66;;;13.87;60.33
37298;BME280;30517;51.932;4.278;2023-10-19T00:56:28;99097.41;;;13.58;59.78
37298;BME280;30517;51.932;4.278;2023-10-19T00:59:13;99121.47;;;13.74;60.25
37298;BME280;30517;51.932;4.278;2023-10-19T01:01:54;99132.41;;;13.66;60.17
37298;BME280;30517;51.932;4.278;2023-10-19T01:04:44;99156.28;;;13.87;60.72
37298;BME280;30517;51.932;4.278;2023-10-19T01:07:30;99144.09;;;13.83;60.65
37298;BME280;30517;51.932;4.278;2023-10-19T01:10:14;99146.38;;;13.90;60.20
37298;BME280;30517;51.932;4.278;2023-10-19T01:13:00;99154.81;;;14.00;60.13
37298;BME280;30517;51.932;4.278;2023-10-19T01:15:41;99148.03;;;13.93;60.74
37298;BME280;30517;51.932;4.278;2023-10-19T01:18:22;99146.28;;;13.93;60.54
37298;BME280;30517;51.932;4.278;2023-10-19T01:21:10;99125.47;;;13.84;59.99
37298;BME280;30517;51.932;4.278;2023-10-19T01:23:52;99144.16;;;14.02;60.06
37298;BME280;30517;51.932;4.278;2023-10-19T01:26:33;99100.50;;;13.69;60.50
37298;BME280;30517;51.932;4.278;2023-10-19T01:29:17;99052.44;;;13.36;60.76
37298;BME280;30517;51.932;4.278;2023-10-19T01:32:06;99098.22;;;13.60;60.89
37298;BME280;30517;51.932;4.278;2023-10-19T01:34:52;99146.88;;;14.00;60.61
37298;BME280;30517;51.932;4.278;2023-10-19T01:37:33;99144.88;;;14.05;60.44
37298;BME280;30517;51.932;4.278;2023-10-19T01:40:18;99144.75;;;14.08;60.19
37298;BME280;30517;51.932;4.278;2023-10-19T01:43:00;99126.47;;;14.02;60.04
37298;BME280;30517;51.932;4.278;2023-10-19T01:45:41;99146.94;;;14.19;59.78
37298;BME280;30517;51.932;4.278;2023-10-19T01:48:23;99129.38;;;13.96;59.79
37298;BME280;30517;51.932;4.278;2023-10-19T01:51:13;99144.28;;;14.19;59.81
37298;BME280;30517;51.932;4.278;2023-10-19T01:53:55;99143.56;;;14.15;59.99
37298;BME280;30517;51.932;4.278;2023-10-19T01:56:37;99142.03;;;14.10;60.53
37298;BME280;30517;51.932;4.278;2023-10-19T01:59:18;99139.56;;;14.05;60.07
37298;BME280;30517;51.932;4.278;2023-10-19T02:01:59;99135.59;;;14.15;60.32
37298;BME280;30517;51.932;4.278;2023-10-19T02:04:42;99143.09;;;14.26;59.67
37298;BME280;30517;51.932;4.278;2023-10-19T02:07:23;99009.75;;;13.44;60.04
37298;BME280;30517;51.932;4.278;2023-10-19T02:10:04;99116.72;;;14.03;60.35
37298;BME280;30517;51.932;4.278;2023-10-19T02:12:48;99130.88;;;14.22;60.29
37298;BME280;30517;51.932;4.278;2023-10-19T02:15:29;99130.41;;;14.33;59.83
37298;BME280;30517;51.932;4.278;2023-10-19T02:18:10;99130.81;;;14.24;59.97
37298;BME280;30517;51.932;4.278;2023-10-19T02:20:51;99124.72;;;14.22;60.24
37298;BME280;30517;51.932;4.278;2023-10-19T02:23:32;99123.84;;;14.21;60.23
37298;BME280;30517;51.932;4.278;2023-10-19T02:26:17;99126.03;;;14.32;59.96
37298;BME280;30517;51.932;4.278;2023-10-19T02:29:00;99133.03;;;14.33;60.22
37298;BME280;30517;51.932;4.278;2023-10-19T02:31:43;99132.19;;;14.32;60.15
37298;BME280;30517;51.932;4.278;2023-10-19T02:34:24;99127.75;;;14.33;60.20
37298;BME280;30517;51.932;4.278;2023-10-19T02:37:05;99140.09;;;14.34;60.05
37298;BME280;30517;51.932;4.278;2023-10-19T02:39:48;99136.69;;;14.30;60.48
37298;BME280;30517;51.932;4.278;2023-10-19T02:42:29;99112.41;;;14.21;60.31
37298;BME280;30517;51.932;4.278;2023-10-19T02:45:11;99117.06;;;14.34;60.21
37298;BME280;30517;51.932;4.278;2023-10-19T02:47:52;99113.44;;;14.37;59.97
37298;BME280;30517;51.932;4.278;2023-10-19T02:50:33;99124.88;;;14.37;60.25
37298;BME280;30517;51.932;4.278;2023-10-19T02:53:16;99121.53;;;14.34;60.34
37298;BME280;30517;51.932;4.278;2023-10-19T02:55:59;99131.06;;;14.38;60.35
37298;BME280;30517;51.932;4.278;2023-10-19T02:58:46;99095.53;;;14.22;60.02
37298;BME280;30517;51.932;4.278;2023-10-19T03:01:31;99109.25;;;14.31;60.32
37298;BME280;30517;51.932;4.278;2023-10-19T03:04:13;99122.16;;;14.39;60.32
37298;BME280;30517;51.932;4.278;2023-10-19T03:06:55;99104.53;;;14.38;60.26
37298;BME280;30517;51.932;4.278;2023-10-19T03:09:36;99069.22;;;14.17;60.15
37298;BME280;30517;51.932;4.278;2023-10-19T03:12:17;99095.13;;;14.31;60.21
37298;BME280;30517;51.932;4.278;2023-10-19T03:14:59;99113.13;;;14.43;60.38
37298;BME280;30517;51.932;4.278;2023-10-19T03:17:41;99110.44;;;14.45;60.10
37298;BME280;30517;51.932;4.278;2023-10-19T03:20:23;99065.66;;;14.18;59.94
37298;BME280;30517;51.932;4.278;2023-10-19T03:23:06;99098.06;;;14.44;60.20
37298;BME280;30517;51.932;4.278;2023-10-19T03:25:56;99089.59;;;14.35;60.31
37298;BME280;30517;51.932;4.278;2023-10-19T03:28:57;99086.16;;;14.33;60.14
37298;BME280;30517;51.932;4.278;2023-10-19T03:31:53;99085.41;;;14.31;60.49
37298;BME280;30517;51.932;4.278;2023-10-19T03:34:35;99102.38;;;14.46;60.14
37298;BME280;30517;51.932;4.278;2023-10-19T03:37:17;99109.41;;;14.47;60.07
37298;BME280;30517;51.932;4.278;2023-10-19T03:40:00;99069.41;;;14.33;60.04
37298;BME280;30517;51.932;4.278;2023-10-19T03:42:46;99036.63;;;14.15;60.18
37298;BME280;30517;51.932;4.278;2023-10-19T03:45:27;99085.09;;;14.37;60.11
37298;BME280;30517;51.932;4.278;2023-10-19T03:48:13;99080.72;;;14.36;60.46
37298;BME280;30517;51.932;4.278;2023-10-19T03:50:56;99113.63;;;14.53;60.20
37298;BME280;30517;51.932;4.278;2023-10-19T03:53:37;99103.00;;;14.53;60.19
37298;BME280;30517;51.932;4.278;2023-10-19T03:56:18;99111.94;;;14.50;60.21
37298;BME280;30517;51.932;4.278;2023-10-19T03:58:59;99101.31;;;14.50;60.20
37298;BME280;30517;51.932;4.278;2023-10-19T04:01:40;99117.13;;;14.53;60.02
37298;BME280;30517;51.932;4.278;2023-10-19T04:04:23;99073.78;;;14.34;59.96
37298;BME280;30517;51.932;4.278;2023-10-19T04:07:04;99088.47;;;14.41;60.10
37298;BME280;30517;51.932;4.278;2023-10-19T04:10:06;99092.78;;;14.44;60.16
37298;BME280;30517;51.932;4.278;2023-10-19T04:12:47;99067.09;;;14.25;60.28
37298;BME280;30517;51.932;4.278;2023-10-19T04:15:29;99080.00;;;14.33;59.97
37298;BME280;30517;51.932;4.278;2023-10-19T04:18:14;99113.63;;;14.53;60.33
37298;BME280;30517;51.932;4.278;2023-10-19T04:20:55;99110.88;;;14.54;60.45
37298;BME280;30517;51.932;4.278;2023-10-19T04:23:37;99111.59;;;14.58;60.43
37298;BME280;30517;51.932;4.278;2023-10-19T04:26:18;99071.34;;;14.29;60.22
37298;BME280;30517;51.932;4.278;2023-10-19T04:28:59;99057.56;;;14.21;60.16
37298;BME280;30517;51.932;4.278;2023-10-19T04:31:49;99129.41;;;14.56;60.39
37298;BME280;30517;51.932;4.278;2023-10-19T04:34:34;99118.84;;;14.54;60.60
37298;BME280;30517;51.932;4.278;2023-10-19T04:37:17;99116.19;;;14.54;60.56
37298;BME280;30517;51.932;4.278;2023-10-19T04:39:58;99104.00;;;14.30;64.11
37298;BME280;30517;51.932;4.278;2023-10-19T04:42:40;99061.91;;;14.03;64.72
37298;BME280;30517;51.932;4.278;2023-10-19T04:45:24;99120.50;;;14.57;63.22
37298;BME280;30517;51.932;4.278;2023-10-19T04:48:05;99068.59;;;14.31;62.28
37298;BME280;30517;51.932;4.278;2023-10-19T04:50:46;99121.81;;;14.67;61.71
37298;BME280;30517;51.932;4.278;2023-10-19T04:53:27;99075.00;;;14.46;61.41
37298;BME280;30517;51.932;4.278;2023-10-19T04:56:08;99122.66;;;14.68;61.38
37298;BME280;30517;51.932;4.278;2023-10-19T04:58:49;99104.38;;;14.62;61.23
37298;BME280;30517;51.932;4.278;2023-10-19T05:01:30;99122.66;;;14.68;61.22
37298;BME280;30517;51.932;4.278;2023-10-19T05:04:14;99098.69;;;14.50;61.12
37298;BME280;30517;51.932;4.278;2023-10-19T05:06:57;99129.66;;;14.69;61.04
37298;BME280;30517;51.932;4.278;2023-10-19T05:09:38;99109.88;;;14.57;61.10
37298;BME280;30517;51.932;4.278;2023-10-19T05:12:19;99129.81;;;14.66;61.14
37298;BME280;30517;51.932;4.278;2023-10-19T05:15:02;99132.31;;;14.69;60.88
37298;BME280;30517;51.932;4.278;2023-10-19T05:17:43;99125.31;;;14.68;60.96
37298;BME280;30517;51.932;4.278;2023-10-19T05:20:24;99119.94;;;14.69;60.54
37298;BME280;30517;51.932;4.278;2023-10-19T05:23:07;99108.03;;;14.59;61.16
37298;BME280;30517;51.932;4.278;2023-10-19T05:25:52;99118.13;;;14.70;60.82
37298;BME280;30517;51.932;4.278;2023-10-19T05:28:33;99108.38;;;14.70;60.83
37298;BME280;30517;51.932;4.278;2023-10-19T05:31:14;99111.88;;;14.71;60.92
37298;BME280;30517;51.932;4.278;2023-10-19T05:33:55;99079.16;;;14.51;60.78
37298;BME280;30517;51.932;4.278;2023-10-19T05:36:36;99071.00;;;14.37;60.84
37298;BME280;30517;51.932;4.278;2023-10-19T05:39:19;99113.69;;;14.70;60.87
37298;BME280;30517;51.932;4.278;2023-10-19T05:42:01;99109.38;;;14.68;61.00
37298;BME280;30517;51.932;4.278;2023-10-19T05:44:42;99113.91;;;14.66;60.83
37298;BME280;30517;51.932;4.278;2023-10-19T05:47:23;99107.72;;;14.65;60.93
37298;BME280;30517;51.932;4.278;2023-10-19T05:50:04;99114.53;;;14.71;61.06
37298;BME280;30517;51.932;4.278;2023-10-19T05:52:48;99086.06;;;14.55;60.75
37298;BME280;30517;51.932;4.278;2023-10-19T05:55:29;99122.34;;;14.74;60.76
37298;BME280;30517;51.932;4.278;2023-10-19T05:58:10;99103.72;;;14.75;60.82
37298;BME280;30517;51.932;4.278;2023-10-19T06:00:51;99122.22;;;14.77;60.78
37298;BME280;30517;51.932;4.278;2023-10-19T06:03:32;99114.41;;;14.74;60.77
37298;BME280;30517;51.932;4.278;2023-10-19T06:06:13;99138.28;;;14.74;60.54
37298;BME280;30517;51.932;4.278;2023-10-19T06:08:54;99088.91;;;14.51;60.83
37298;BME280;30517;51.932;4.278;2023-10-19T06:11:35;99140.09;;;14.73;60.67
37298;BME280;30517;51.932;4.278;2023-10-19T06:14:22;99091.47;;;14.54;60.91
37298;BME280;30517;51.932;4.278;2023-10-19T06:17:04;99107.44;;;14.52;60.45
37298;BME280;30517;51.932;4.278;2023-10-19T06:19:45;99078.00;;;14.38;60.79
37298;BME280;30517;51.932;4.278;2023-10-19T06:22:26;99146.97;;;14.77;60.65
37298;BME280;30517;51.932;4.278;2023-10-19T06:25:08;99089.41;;;14.40;60.80
37298;BME280;30517;51.932;4.278;2023-10-19T06:27:51;99027.63;;;13.99;60.70
37298;BME280;30517;51.932;4.278;2023-10-19T06:30:33;99137.00;;;14.64;60.59
37298;BME280;30517;51.932;4.278;2023-10-19T06:33:14;99153.16;;;14.78;60.73
37298;BME280;30517;51.932;4.278;2023-10-19T06:35:55;99059.47;;;14.17;60.67
37298;BME280;30517;51.932;4.278;2023-10-19T06:38:36;99161.25;;;14.75;60.87
37298;BME280;30517;51.932;4.278;2023-10-19T06:41:17;99158.38;;;14.79;60.48
37298;BME280;30517;51.932;4.278;2023-10-19T06:43:58;99128.09;;;14.65;60.67
37298;BME280;30517;51.932;4.278;2023-10-19T06:46:42;99153.16;;;14.78;60.80
37298;BME280;30517;51.932;4.278;2023-10-19T06:49:23;99158.38;;;14.79;60.78
37298;BME280;30517;51.932;4.278;2023-10-19T06:52:05;99154.81;;;14.80;60.76
37298;BME280;30517;51.932;4.278;2023-10-19T06:54:46;99079.00;;;14.35;60.66
37298;BME280;30517;51.932;4.278;2023-10-19T06:57:27;99157.50;;;14.79;60.77
37298;BME280;30517;51.932;4.278;2023-10-19T07:00:09;99094.28;;;14.49;60.69
37298;BME280;30517;51.932;4.278;2023-10-19T07:02:58;99159.09;;;14.83;60.47
37298;BME280;30517;51.932;4.278;2023-10-19T07:05:43;99152.06;;;14.82;60.63
37298;BME280;30517;51.932;4.278;2023-10-19T07:08:24;99127.41;;;14.61;60.70
37298;BME280;30517;51.932;4.278;2023-10-19T07:11:07;99067.81;;;14.29;60.61
37298;BME280;30517;51.932;4.278;2023-10-19T07:13:48;99127.25;;;14.64;60.63
37298;BME280;30517;51.932;4.278;2023-10-19T07:16:32;99159.97;;;14.83;60.76
37298;BME280;30517;51.932;4.278;2023-10-19T07:19:13;99127.31;;;14.63;60.70
37298;BME280;30517;51.932;4.278;2023-10-19T07:21:54;99116.78;;;14.61;60.63
37298;BME280;30517;51.932;4.278;2023-10-19T07:24:38;99158.97;;;14.86;60.42
37298;BME280;30517;51.932;4.278;2023-10-19T07:27:19;99170.50;;;14.85;60.69
37298;BME280;30517;51.932;4.278;2023-10-19T07:30:01;99149.78;;;14.74;60.65
37298;BME280;30517;51.932;4.278;2023-10-19T07:32:50;99167.06;;;14.83;60.84
37298;BME280;30517;51.932;4.278;2023-10-19T07:35:35;99162.53;;;14.85;60.77
37298;BME280;30517;51.932;4.278;2023-10-19T07:38:20;99189.88;;;14.87;60.55
37298;BME280;30517;51.932;4.278;2023-10-19T07:41:02;99165.13;;;14.87;60.63
37298;BME280;30517;51.932;4.278;2023-10-19T07:43:44;99173.03;;;14.88;60.71
37298;BME280;30517;51.932;4.278;2023-10-19T07:46:25;99134.28;;;14.65;61.10
37298;BME280;30517;51.932;4.278;2023-10-19T07:49:06;99167.72;;;14.88;60.91
37298;BME280;30517;51.932;4.278;2023-10-19T07:51:48;99165.91;;;14.89;60.92
37298;BME280;30517;51.932;4.278;2023-10-19T07:54:30;99172.13;;;14.88;60.75
37298;BME280;30517;51.932;4.278;2023-10-19T07:57:11;99166.78;;;14.89;60.70
37298;BME280;30517;51.932;4.278;2023-10-19T07:59:53;99112.59;;;14.55;60.78
37298;BME280;30517;51.932;4.278;2023-10-19T08:02:37;99164.81;;;14.93;60.84
37298;BME280;30517;51.932;4.278;2023-10-19T08:05:27;99149.63;;;14.96;60.53
37298;BME280;30517;51.932;4.278;2023-10-19T08:08:08;99133.13;;;14.71;60.91
37298;BME280;30517;51.932;4.278;2023-10-19T08:10:49;99165.72;;;14.93;60.59
37298;BME280;30517;51.932;4.278;2023-10-19T08:13:30;99131.72;;;14.82;60.75
37298;BME280;30517;51.932;4.278;2023-10-19T08:16:12;99155.09;;;14.93;60.96
37298;BME280;30517;51.932;4.278;2023-10-19T08:18:53;99125.25;;;14.69;60.86
37298;BME280;30517;51.932;4.278;2023-10-19T08:21:34;99167.44;;;14.94;61.15
37298;BME280;30517;51.932;4.278;2023-10-19T08:24:15;99118.00;;;14.73;60.82
37298;BME280;30517;51.932;4.278;2023-10-19T08:26:58;99155.88;;;14.95;60.90
37298;BME280;30517;51.932;4.278;2023-10-19T08:29:40;99055.94;;;14.37;60.71
37298;BME280;30517;51.932;4.278;2023-10-19T08:32:21;99154.94;;;14.96;60.93
37298;BME280;30517;51.932;4.278;2023-10-19T08:35:03;99149.50;;;14.99;60.90
37298;BME280;30517;51.932;4.278;2023-10-19T08:37:44;99150.34;;;15.00;60.87
37298;BME280;30517;51.932;4.278;2023-10-19T08:40:26;99112.19;;;14.83;60.81
37298;BME280;30517;51.932;4.278;2023-10-19T08:43:08;99148.34;;;15.05;60.88
37298;BME280;30517;51.932;4.278;2023-10-19T08:45:53;99151.78;;;15.07;60.61
37298;BME280;30517;51.932;4.278;2023-10-19T08:48:36;99166.81;;;15.07;60.73
37298;BME280;30517;51.932;4.278;2023-10-19T08:51:18;99116.50;;;14.86;60.93
37298;BME280;30517;51.932;4.278;2023-10-19T08:54:00;99137.06;;;15.00;60.65
37298;BME280;30517;51.932;4.278;2023-10-19T08:56:42;99088.94;;;14.70;60.80
37298;BME280;30517;51.932;4.278;2023-10-19T08:59:24;99121.06;;;15.01;60.54
37298;BME280;30517;51.932;4.278;2023-10-19T09:02:06;99136.41;;;15.14;60.58
37298;BME280;30517;51.932;4.278;2023-10-19T09:04:47;99117.47;;;15.02;60.77
37298;BME280;30517;51.932;4.278;2023-10-19T09:07:28;99144.38;;;15.14;60.97
37298;BME280;30517;51.932;4.278;2023-10-19T09:10:11;99114.19;;;14.97;60.93
37298;BME280;30517;51.932;4.278;2023-10-19T09:13:04;99135.34;;;15.18;60.83
37298;BME280;30517;51.932;4.278;2023-10-19T09:15:48;99123.72;;;15.20;60.82
37298;BME280;30517;51.932;4.278;2023-10-19T09:18:29;99112.34;;;15.17;60.62
37298;BME280;30517;51.932;4.278;2023-10-19T09:21:11;99114.72;;;15.23;60.61
37298;BME280;30517;51.932;4.278;2023-10-19T09:23:53;99117.22;;;15.26;60.90
37298;BME280;30517;51.932;4.278;2023-10-19T09:26:35;99095.72;;;15.13;61.03
37298;BME280;30517;51.932;4.278;2023-10-19T09:29:17;99050.03;;;14.88;60.80
37298;BME280;30517;51.932;4.278;2023-10-19T09:31:59;99069.19;;;14.94;61.02
37298;BME280;30517;51.932;4.278;2023-10-19T09:34:44;99123.19;;;15.31;60.69
37298;BME280;30517;51.932;4.278;2023-10-19T09:37:28;99106.81;;;15.21;60.70
37298;BME280;30517;51.932;4.278;2023-10-19T09:40:13;99121.13;;;15.36;60.69
37298;BME280;30517;51.932;4.278;2023-10-19T09:42:56;99129.91;;;15.38;60.66
37298;BME280;30517;51.932;4.278;2023-10-19T09:45:41;99094.56;;;15.19;60.55
37298;BME280;30517;51.932;4.278;2023-10-19T09:48:30;99118.19;;;15.42;60.87
37298;BME280;30517;51.932;4.278;2023-10-19T09:51:17;99118.25;;;15.41;60.57
37298;BME280;30517;51.932;4.278;2023-10-19T09:54:11;99084.72;;;15.21;60.67
37298;BME280;30517;51.932;4.278;2023-10-19T09:57:01;99046.84;;;14.98;60.81
37298;BME280;30517;51.932;4.278;2023-10-19T09:59:44;99127.56;;;15.49;60.31
37298;BME280;30517;51.932;4.278;2023-10-19T10:02:27;99082.69;;;15.26;60.88
37298;BME280;30517;51.932;4.278;2023-10-19T10:11:23;99038.94;;;15.16;60.85
37298;BME280;30517;51.932;4.278;2023-10-19T10:14:20;99045.69;;;15.23;60.82
37298;BME280;30517;51.932;4.278;2023-10-19T10:17:04;99109.69;;;15.53;60.53
37298;BME280;30517;51.932;4.278;2023-10-19T10:19:47;99131.41;;;15.61;60.58
37298;BME280;30517;51.932;4.278;2023-10-19T10:22:28;99120.69;;;15.63;60.55
37298;BME280;30517;51.932;4.278;2023-10-19T10:25:28;99109.31;;;15.61;60.67
37298;BME280;30517;51.932;4.278;2023-10-19T10:28:12;99066.44;;;15.32;60.44
37298;BME280;30517;51.932;4.278;2023-10-19T10:31:19;99110.69;;;15.68;60.62
37298;BME280;30517;51.932;4.278;2023-10-19T10:34:01;99117.69;;;15.70;60.66
37298;BME280;30517;51.932;4.278;2023-10-19T10:37:00;99109.38;;;15.59;60.52
37298;BME280;30517;51.932;4.278;2023-10-19T10:39:44;99118.38;;;15.74;60.84
37298;BME280;30517;51.932;4.278;2023-10-19T10:42:25;99084.75;;;15.56;60.80
37298;BME280;30517;51.932;4.278;2023-10-19T10:45:07;99101.34;;;15.78;60.81
37298;BME280;30517;51.932;4.278;2023-10-19T10:48:00;99063.94;;;15.46;60.42
37298;BME280;30517;51.932;4.278;2023-10-19T10:50:42;99121.50;;;15.82;60.60
37298;BME280;30517;51.932;4.278;2023-10-19T10:53:25;99083.50;;;15.63;60.44
37298;BME280;30517;51.932;4.278;2023-10-19T10:56:07;99090.88;;;15.75;60.37
37298;BME280;30517;51.932;4.278;2023-10-19T10:58:48;99104.47;;;15.86;60.57
37298;BME280;30517;51.932;4.278;2023-10-19T11:01:31;99102.59;;;15.88;60.55
37298;BME280;30517;51.932;4.278;2023-10-19T11:04:15;99090.00;;;15.92;60.90
37298;BME280;30517;51.932;4.278;2023-10-19T11:06:56;99060.53;;;15.79;60.86
37298;BME280;30517;51.932;4.278;2023-10-19T11:09:44;99049.28;;;15.74;60.64
37298;BME280;30517;51.932;4.278;2023-10-19T11:12:26;99078.19;;;15.98;60.68
37298;BME280;30517;51.932;4.278;2023-10-19T11:15:07;99080.69;;;16.01;60.74
37298;BME280;30517;51.932;4.278;2023-10-19T11:17:51;99054.25;;;15.98;60.75
37298;BME280;30517;51.932;4.278;2023-10-19T11:20:33;99055.38;;;15.93;60.79
37298;BME280;30517;51.932;4.278;2023-10-19T11:23:14;99066.28;;;16.05;60.64
37298;BME280;30517;51.932;4.278;2023-10-19T11:25:58;99047.22;;;15.97;60.54
37298;BME280;30517;51.932;4.278;2023-10-19T11:28:43;99015.50;;;15.76;61.00
37298;BME280;30517;51.932;4.278;2023-10-19T11:31:56;99058.75;;;16.13;61.01
37298;BME280;30517;51.932;4.278;2023-10-19T11:34:37;99034.22;;;16.08;60.76
37298;BME280;30517;51.932;4.278;2023-10-19T11:37:19;99058.53;;;16.18;60.78
37298;BME280;30517;51.932;4.278;2023-10-19T11:40:00;99061.19;;;16.18;60.88
37298;BME280;30517;51.932;4.278;2023-10-19T11:42:41;99000.63;;;15.89;60.84
37298;BME280;30517;51.932;4.278;2023-10-19T11:45:22;99045.91;;;16.21;60.86
37298;BME280;30517;51.932;4.278;2023-10-19T11:48:06;99045.81;;;16.23;60.88
37298;BME280;30517;51.932;4.278;2023-10-19T11:50:48;99028.56;;;16.14;60.79
37298;BME280;30517;51.932;4.278;2023-10-19T11:53:33;99041.09;;;16.28;61.07
37298;BME280;30517;51.932;4.278;2023-10-19T11:56:14;99037.53;;;16.29;61.07
37298;BME280;30517;51.932;4.278;2023-10-19T11:58:57;99024.47;;;16.24;61.04
37298;BME280;30517;51.932;4.278;2023-10-19T12:01:38;99036.50;;;16.31;60.91
37298;BME280;30517;51.932;4.278;2023-10-19T12:04:19;98998.28;;;16.17;61.08
37298;BME280;30517;51.932;4.278;2023-10-19T12:07:00;99007.88;;;16.19;60.87
37298;BME280;30517;51.932;4.278;2023-10-19T12:09:41;99009.88;;;16.31;60.87
37298;BME280;30517;51.932;4.278;2023-10-19T12:12:22;98986.88;;;16.30;61.18
37298;BME280;30517;51.932;4.278;2023-10-19T12:15:04;98987.03;;;16.27;61.00
37298;BME280;30517;51.932;4.278;2023-10-19T12:17:48;99005.94;;;16.38;61.26
37298;BME280;30517;51.932;4.278;2023-10-19T12:20:31;99006.47;;;16.45;61.31
37298;BME280;30517;51.932;4.278;2023-10-19T12:23:13;98998.28;;;16.32;61.09
37298;BME280;30517;51.932;4.278;2023-10-19T12:25:54;99004.03;;;16.41;60.99
37298;BME280;30517;51.932;4.278;2023-10-19T12:28:35;99011.50;;;16.50;60.66
37298;BME280;30517;51.932;4.278;2023-10-19T12:31:18;98863.63;;;15.66;61.14
37298;BME280;30517;51.932;4.278;2023-10-19T12:33:59;98972.66;;;16.31;61.38
37298;BME280;30517;51.932;4.278;2023-10-19T12:36:40;98999.75;;;16.54;60.91
37298;BME280;30517;51.932;4.278;2023-10-19T12:39:21;98997.16;;;16.52;61.53
37298;BME280;30517;51.932;4.278;2023-10-19T12:42:21;98968.50;;;16.42;61.36
37298;BME280;30517;51.932;4.278;2023-10-19T12:45:03;98994.97;;;16.45;60.98
37298;BME280;30517;51.932;4.278;2023-10-19T12:47:44;98991.41;;;16.44;60.97
37298;BME280;30517;51.932;4.278;2023-10-19T12:50:25;98989.72;;;16.59;61.19
37298;BME280;30517;51.932;4.278;2023-10-19T12:53:07;98947.75;;;16.32;61.51
37298;BME280;30517;51.932;4.278;2023-10-19T12:55:49;98993.91;;;16.63;61.04
37298;BME280;30517;51.932;4.278;2023-10-19T12:58:30;98990.50;;;16.61;61.34
37298;BME280;30517;51.932;4.278;2023-10-19T13:01:12;98979.66;;;16.64;61.33
37298;BME280;30517;51.932;4.278;2023-10-19T13:03:57;98978.03;;;16.62;61.22
37298;BME280;30517;51.932;4.278;2023-10-19T13:06:46;98982.22;;;16.66;61.38
37298;BME280;30517;51.932;4.278;2023-10-19T13:09:29;98974.16;;;16.67;61.32
37298;BME280;30517;51.932;4.278;2023-10-19T13:12:13;98975.88;;;16.68;61.15
37298;BME280;30517;51.932;4.278;2023-10-19T13:14:54;98977.69;;;16.68;61.54
37298;BME280;30517;51.932;4.278;2023-10-19T13:17:36;98965.22;;;16.68;61.56
37298;BME280;30517;51.932;4.278;2023-10-19T13:20:17;98952.09;;;16.65;61.45
37298;BME280;30517;51.932;4.278;2023-10-19T13:23:00;98894.28;;;16.37;61.04
37298;BME280;30517;51.932;4.278;2023-10-19T13:25:42;98838.69;;;16.01;61.42
37298;BME280;30517;51.932;4.278;2023-10-19T13:28:27;98962.97;;;16.76;61.23
37298;BME280;30517;51.932;4.278;2023-10-19T13:31:08;98950.81;;;16.72;61.44
37298;BME280;30517;51.932;4.278;2023-10-19T13:33:49;98948.66;;;16.79;60.99
37298;BME280;30517;51.932;4.278;2023-10-19T13:36:30;98917.31;;;16.52;61.39
37298;BME280;30517;51.932;4.278;2023-10-19T13:39:11;98923.00;;;16.62;61.39
37298;BME280;30517;51.932;4.278;2023-10-19T13:41:57;98935.47;;;16.77;61.54
37298;BME280;30517;51.932;4.278;2023-10-19T13:44:38;98935.47;;;16.77;61.59
37298;BME280;30517;51.932;4.278;2023-10-19T13:47:19;98928.72;;;16.70;61.59
37298;BME280;30517;51.932;4.278;2023-10-19T13:50:00;98887.13;;;16.53;61.20
37298;BME280;30517;51.932;4.278;2023-10-19T13:52:41;98761.78;;;15.82;61.37
37298;BME280;30517;51.932;4.278;2023-10-19T13:55:23;98930.13;;;16.77;61.64
37298;BME280;30517;51.932;4.278;2023-10-19T13:58:33;98921.97;;;16.80;61.31
37298;BME280;30517;51.932;4.278;2023-10-19T14:01:15;98922.28;;;16.74;61.43
37298;BME280;30517;51.932;4.278;2023-10-19T14:04:10;98902.38;;;16.81;61.25
37298;BME280;30517;51.932;4.278;2023-10-19T14:06:58;98897.03;;;16.81;61.18
37298;BME280;30517;51.932;4.278;2023-10-19T14:10:29;98892.41;;;16.85;61.68
37298;BME280;30517;51.932;4.278;2023-10-19T14:13:11;98883.09;;;16.76;61.69
37298;BME280;30517;51.932;4.278;2023-10-19T14:15:58;98896.97;;;16.83;61.59
37298;BME280;30517;51.932;4.278;2023-10-19T14:18:43;98891.72;;;16.81;61.53
37298;BME280;30517;51.932;4.278;2023-10-19T14:21:24;98891.44;;;16.86;61.46
37298;BME280;30517;51.932;4.278;2023-10-19T14:24:09;98879.44;;;16.79;61.71
37298;BME280;30517;51.932;4.278;2023-10-19T14:26:53;98877.38;;;16.84;61.41
37298;BME280;30517;51.932;4.278;2023-10-19T14:29:34;98858.25;;;16.77;61.82
37298;BME280;30517;51.932;4.278;2023-10-19T14:32:16;98813.09;;;16.60;61.92